createdAt,value
2016-11-23T00:00:55.136Z,0
2016-11-23T00:01:55.210Z,0
2016-11-23T00:02:55.255Z,0
2016-11-23T00:03:55.280Z,0
2016-11-23T00:04:55.367Z,0
2016-11-23T00:05:55.410Z,0
2016-11-23T00:06:55.482Z,0
2016-11-23T00:07:55.548Z,0
2016-11-23T00:08:55.567Z,0
2016-11-23T00:09:55.646Z,0
2016-11-23T00:10:55.670Z,0
2016-11-23T00:11:55.751Z,0
2016-11-23T00:12:55.793Z,0
2016-11-23T00:13:55.895Z,0
2016-11-23T00:14:55.951Z,0
2016-11-23T00:15:56.010Z,0
2016-11-23T00:16:56.041Z,0
2016-11-23T00:17:56.112Z,0
2016-11-23T00:18:56.134Z,0
2016-11-23T00:19:56.181Z,0
2016-11-23T00:20:56.283Z,0
2016-11-23T00:21:56.345Z,0
2016-11-23T00:22:56.403Z,0
2016-11-23T00:23:56.441Z,0
2016-11-23T00:24:56.811Z,0
2016-11-23T00:25:56.553Z,0
2016-11-23T00:26:56.623Z,0
2016-11-23T00:27:56.690Z,0
2016-11-23T00:28:56.717Z,0
2016-11-23T00:29:56.800Z,0
2016-11-23T00:30:56.859Z,0
2016-11-23T00:31:56.884Z,0
2016-11-23T00:32:56.943Z,0
2016-11-23T00:33:56.995Z,0
2016-11-23T00:34:57.054Z,0
2016-11-23T00:35:57.101Z,0
2016-11-23T00:36:57.168Z,0
2016-11-23T00:37:57.259Z,0
2016-11-23T00:38:57.305Z,0
2016-11-23T00:39:57.317Z,0
2016-11-23T00:40:57.406Z,0
2016-11-23T00:41:57.462Z,0
2016-11-23T00:42:57.540Z,0
2016-11-23T00:43:57.576Z,0
2016-11-23T00:44:57.625Z,0
2016-11-23T00:45:57.700Z,0
2016-11-23T00:46:57.749Z,0
2016-11-23T00:47:57.791Z,0
2016-11-23T00:48:57.848Z,0
2016-11-23T00:49:57.893Z,0
2016-11-23T00:50:57.962Z,0
2016-11-23T00:51:58.015Z,0
2016-11-23T00:52:58.076Z,0
2016-11-23T00:53:58.111Z,0
2016-11-23T00:54:58.165Z,0
2016-11-23T00:55:58.242Z,0
2016-11-23T00:56:58.312Z,0
2016-11-23T00:57:58.336Z,0
2016-11-23T00:58:58.426Z,0
2016-11-23T00:59:58.448Z,0
2016-11-23T01:00:58.519Z,0
2016-11-23T01:01:58.562Z,0
2016-11-23T01:02:58.654Z,0
2016-11-23T01:03:58.736Z,0
2016-11-23T01:04:58.754Z,0
2016-11-23T01:05:58.824Z,0
2016-11-23T01:06:58.900Z,0
2016-11-23T01:07:58.939Z,0
2016-11-23T01:08:58.991Z,0
2016-11-23T01:09:59.051Z,0
2016-11-23T01:10:59.108Z,0
2016-11-23T01:11:59.163Z,0
2016-11-23T01:12:59.241Z,0
2016-11-23T01:13:59.286Z,0
2016-11-23T01:14:59.321Z,0
2016-11-23T01:15:59.366Z,0
2016-11-23T01:16:59.433Z,0
2016-11-23T01:17:59.471Z,0
2016-11-23T01:18:59.536Z,0
2016-11-23T01:19:59.607Z,0
2016-11-23T01:20:59.672Z,0
2016-11-23T01:21:59.728Z,0
2016-11-23T01:22:59.788Z,0
2016-11-23T01:23:59.831Z,0
2016-11-23T01:24:59.863Z,0
2016-11-23T01:25:59.955Z,0
2016-11-23T01:27:00.032Z,0
2016-11-23T01:28:00.087Z,0
2016-11-23T01:29:00.143Z,0
2016-11-23T01:30:00.183Z,0
2016-11-23T01:31:00.252Z,0
2016-11-23T01:32:00.578Z,0
2016-11-23T01:33:00.316Z,0
2016-11-23T01:34:00.396Z,0
2016-11-23T01:35:00.463Z,0
2016-11-23T01:36:00.490Z,0
2016-11-23T01:37:00.547Z,0
2016-11-23T01:38:00.612Z,0
2016-11-23T01:39:00.682Z,0
2016-11-23T01:40:00.735Z,0
2016-11-23T01:41:00.833Z,0
2016-11-23T01:42:00.853Z,0
2016-11-23T01:43:00.949Z,0
2016-11-23T01:44:00.941Z,0
2016-11-23T01:45:01.030Z,0
2016-11-23T01:46:01.082Z,0
2016-11-23T01:47:01.140Z,0
2016-11-23T01:48:01.213Z,0
2016-11-23T01:49:01.227Z,0
2016-11-23T01:50:01.316Z,0
2016-11-23T01:51:01.693Z,0
2016-11-23T01:52:01.447Z,0
2016-11-23T01:53:01.455Z,0
2016-11-23T01:54:01.529Z,0
2016-11-23T01:55:01.567Z,0
2016-11-23T01:56:01.642Z,0
2016-11-23T01:57:01.689Z,0
2016-11-23T01:58:01.778Z,0
2016-11-23T01:59:01.838Z,0
2016-11-23T02:00:01.878Z,0
2016-11-23T02:01:01.915Z,0
2016-11-23T02:02:01.973Z,0
2016-11-23T02:03:02.051Z,0
2016-11-23T02:04:02.097Z,0
2016-11-23T02:05:02.165Z,0
2016-11-23T02:06:02.214Z,0
2016-11-23T02:07:02.247Z,0
2016-11-23T02:08:02.312Z,0
2016-11-23T02:09:02.392Z,0
2016-11-23T02:10:02.472Z,0
2016-11-23T02:11:02.517Z,0
2016-11-23T02:12:02.582Z,0
2016-11-23T02:13:02.637Z,0
2016-11-23T02:14:02.680Z,0
2016-11-23T02:15:02.701Z,0
2016-11-23T02:16:02.979Z,0
2016-11-23T02:17:02.814Z,0
2016-11-23T02:18:02.923Z,0
2016-11-23T02:19:02.969Z,0
2016-11-23T02:20:03.029Z,0
2016-11-23T02:21:03.073Z,0
2016-11-23T02:22:03.132Z,0
2016-11-23T02:23:03.167Z,0
2016-11-23T02:24:03.215Z,0
2016-11-23T02:25:03.277Z,0
2016-11-23T02:26:03.350Z,0
2016-11-23T02:27:03.382Z,0
2016-11-23T02:28:03.462Z,0
2016-11-23T02:29:03.507Z,0
2016-11-23T02:30:03.596Z,0
2016-11-23T02:31:03.620Z,0
2016-11-23T02:32:03.698Z,0
2016-11-23T02:33:03.754Z,0
2016-11-23T02:34:03.827Z,0
2016-11-23T02:35:03.835Z,0
2016-11-23T02:36:03.896Z,0
2016-11-23T02:37:04.310Z,0
2016-11-23T02:38:04.050Z,0
2016-11-23T02:39:04.084Z,0
2016-11-23T02:40:04.143Z,0
2016-11-23T02:41:04.212Z,0
2016-11-23T02:42:04.248Z,0
2016-11-23T02:43:04.330Z,0
2016-11-23T02:44:04.377Z,0
2016-11-23T02:45:04.459Z,0
2016-11-23T02:46:04.469Z,0
2016-11-23T02:47:04.545Z,0
2016-11-23T02:48:04.581Z,0
2016-11-23T02:49:04.643Z,0
2016-11-23T02:50:04.721Z,0
2016-11-23T02:51:04.777Z,0
2016-11-23T02:52:04.830Z,0
2016-11-23T02:53:04.913Z,0
2016-11-23T02:54:04.953Z,0
2016-11-23T02:55:04.985Z,0
2016-11-23T02:56:05.039Z,0
2016-11-23T02:57:05.144Z,0
2016-11-23T02:58:05.152Z,0
2016-11-23T02:59:05.259Z,0
2016-11-23T03:00:05.299Z,0
2016-11-23T03:01:05.334Z,0
2016-11-23T03:02:05.408Z,0
2016-11-23T03:03:05.440Z,0
2016-11-23T03:04:05.521Z,0
2016-11-23T03:05:05.562Z,0
2016-11-23T03:06:05.645Z,0
2016-11-23T03:07:05.696Z,0
2016-11-23T03:08:05.754Z,0
2016-11-23T03:09:05.789Z,0
2016-11-23T03:10:05.859Z,0
2016-11-23T03:11:05.904Z,0
2016-11-23T03:12:05.961Z,0
2016-11-23T03:13:05.993Z,0
2016-11-23T03:14:06.085Z,0
2016-11-23T03:15:06.140Z,0
2016-11-23T03:16:06.207Z,0
2016-11-23T03:17:06.233Z,0
2016-11-23T03:18:06.331Z,0
2016-11-23T03:19:06.355Z,0
2016-11-23T03:20:06.426Z,0
2016-11-23T03:21:06.487Z,0
2016-11-23T03:22:06.529Z,0
2016-11-23T03:23:06.586Z,0
2016-11-23T03:24:06.671Z,0
2016-11-23T03:25:06.719Z,0
2016-11-23T03:26:06.763Z,0
2016-11-23T03:27:06.842Z,0
2016-11-23T03:28:06.871Z,0
2016-11-23T03:29:06.949Z,0
2016-11-23T03:30:06.991Z,0
2016-11-23T03:31:07.045Z,0
2016-11-23T03:32:07.085Z,0
2016-11-23T03:33:07.157Z,0
2016-11-23T03:34:07.185Z,0
2016-11-23T03:35:07.248Z,0
2016-11-23T03:36:07.326Z,0
2016-11-23T03:37:07.400Z,0
2016-11-23T03:38:07.441Z,0
2016-11-23T03:39:07.744Z,0
2016-11-23T03:40:07.760Z,0
2016-11-23T03:41:07.608Z,0
2016-11-23T03:42:07.696Z,0
2016-11-23T03:43:07.692Z,0
2016-11-23T03:44:07.799Z,0
2016-11-23T03:45:07.852Z,0
2016-11-23T03:46:07.878Z,0
2016-11-23T03:47:07.956Z,0
2016-11-23T03:48:08.008Z,0
2016-11-23T03:49:08.089Z,0
2016-11-23T03:50:08.116Z,0
2016-11-23T03:51:08.168Z,0
2016-11-23T03:52:08.224Z,0
2016-11-23T03:53:08.285Z,0
2016-11-23T03:54:08.368Z,0
2016-11-23T03:55:08.406Z,0
2016-11-23T03:56:08.441Z,0
2016-11-23T03:57:08.490Z,0
2016-11-23T03:58:08.578Z,0
2016-11-23T03:59:08.642Z,0
2016-11-23T04:00:08.687Z,0
2016-11-23T04:01:08.751Z,0
2016-11-23T04:02:08.802Z,0
2016-11-23T04:03:08.882Z,0
2016-11-23T04:04:08.896Z,0
2016-11-23T04:05:08.992Z,0
2016-11-23T04:06:09.052Z,0
2016-11-23T04:07:09.070Z,0
2016-11-23T04:08:09.155Z,0
2016-11-23T04:09:09.213Z,0
2016-11-23T04:10:09.250Z,0
2016-11-23T04:11:09.514Z,0
2016-11-23T04:12:09.575Z,0
2016-11-23T04:13:09.726Z,0
2016-11-23T04:14:09.474Z,0
2016-11-23T04:15:09.519Z,0
2016-11-23T04:16:09.595Z,0
2016-11-23T04:17:09.676Z,0
2016-11-23T04:18:09.681Z,0
2016-11-23T04:19:09.770Z,0
2016-11-23T04:20:09.817Z,0
2016-11-23T04:21:09.894Z,0
2016-11-23T04:22:09.944Z,0
2016-11-23T04:23:09.992Z,0
2016-11-23T04:24:10.039Z,0
2016-11-23T04:25:10.119Z,0
2016-11-23T04:26:10.169Z,0
2016-11-23T04:27:10.187Z,0
2016-11-23T04:28:10.269Z,0
2016-11-23T04:29:10.333Z,0
2016-11-23T04:30:10.378Z,0
2016-11-23T04:31:10.446Z,0
2016-11-23T04:32:10.508Z,0
2016-11-23T04:33:10.551Z,0
2016-11-23T04:34:10.639Z,0
2016-11-23T04:35:10.669Z,0
2016-11-23T04:36:10.715Z,0
2016-11-23T04:37:10.780Z,0
2016-11-23T04:38:10.832Z,0
2016-11-23T04:39:10.914Z,0
2016-11-23T04:40:10.949Z,0
2016-11-23T04:41:10.998Z,0
2016-11-23T04:42:11.246Z,0
2016-11-23T04:43:11.149Z,0
2016-11-23T04:44:11.195Z,0
2016-11-23T04:45:11.437Z,0
2016-11-23T04:46:11.634Z,0
2016-11-23T04:47:11.356Z,0
2016-11-23T04:48:11.400Z,0
2016-11-23T04:49:11.494Z,0
2016-11-23T04:50:11.501Z,0
2016-11-23T04:51:11.571Z,0
2016-11-23T04:52:11.658Z,0
2016-11-23T04:53:11.686Z,0
2016-11-23T04:54:11.779Z,0
2016-11-23T04:55:11.828Z,0
2016-11-23T04:56:11.836Z,0
2016-11-23T04:57:11.943Z,0
2016-11-23T04:58:11.991Z,0
2016-11-23T04:59:12.026Z,0
2016-11-23T05:00:12.085Z,0
2016-11-23T05:01:12.169Z,0
2016-11-23T05:02:12.207Z,0
2016-11-23T05:03:12.252Z,0
2016-11-23T05:04:12.291Z,0
2016-11-23T05:05:12.386Z,0
2016-11-23T05:06:12.456Z,0
2016-11-23T05:07:12.490Z,0
2016-11-23T05:08:12.534Z,0
2016-11-23T05:09:12.571Z,0
2016-11-23T05:10:12.669Z,0
2016-11-23T05:11:12.682Z,0
2016-11-23T05:12:12.779Z,0
2016-11-23T05:13:12.810Z,0
2016-11-23T05:14:13.095Z,0
2016-11-23T05:15:13.271Z,0
2016-11-23T05:16:12.987Z,0
2016-11-23T05:17:13.231Z,0
2016-11-23T05:18:13.135Z,0
2016-11-23T05:19:13.150Z,0
2016-11-23T05:20:13.213Z,0
2016-11-23T05:21:13.270Z,0
2016-11-23T05:22:13.316Z,0
2016-11-23T05:23:13.386Z,0
2016-11-23T05:24:13.441Z,0
2016-11-23T05:25:13.506Z,0
2016-11-23T05:26:13.556Z,0
2016-11-23T05:27:13.599Z,0
2016-11-23T05:28:13.657Z,0
2016-11-23T05:29:13.756Z,0
2016-11-23T05:30:13.761Z,0
2016-11-23T05:31:13.838Z,0
2016-11-23T05:32:13.878Z,0
2016-11-23T05:33:13.928Z,0
2016-11-23T05:34:14.013Z,0
2016-11-23T05:35:14.061Z,0
2016-11-23T05:36:14.133Z,0
2016-11-23T05:37:14.209Z,0
2016-11-23T05:38:14.264Z,0
2016-11-23T05:39:14.311Z,0
2016-11-23T05:40:14.339Z,0
2016-11-23T05:41:14.406Z,0
2016-11-23T05:42:14.448Z,0
2016-11-23T05:43:14.522Z,0
2016-11-23T05:44:14.585Z,0
2016-11-23T05:45:14.619Z,0
2016-11-23T05:46:29.628Z,0
2016-11-23T05:47:14.924Z,0
2016-11-23T05:48:14.824Z,0
2016-11-23T05:49:14.869Z,0
2016-11-23T05:50:14.922Z,0
2016-11-23T05:51:14.966Z,0
2016-11-23T05:52:15.006Z,0
2016-11-23T05:53:15.083Z,0
2016-11-23T05:54:15.142Z,0
2016-11-23T05:55:15.224Z,0
2016-11-23T05:56:15.242Z,0
2016-11-23T05:57:15.319Z,0
2016-11-23T05:58:15.362Z,0
2016-11-23T05:59:15.442Z,0
2016-11-23T06:00:15.507Z,0
2016-11-23T06:01:15.532Z,0
2016-11-23T06:02:15.601Z,0
2016-11-23T06:03:15.654Z,0
2016-11-23T06:04:15.751Z,0
2016-11-23T06:05:15.772Z,0
2016-11-23T06:06:15.815Z,0
2016-11-23T06:07:15.883Z,0
2016-11-23T06:08:15.918Z,0
2016-11-23T06:09:15.996Z,4
2016-11-23T06:10:16.041Z,4
2016-11-23T06:11:16.130Z,0
2016-11-23T06:12:16.176Z,0
2016-11-23T06:13:16.189Z,4
2016-11-23T06:14:16.254Z,0
2016-11-23T06:15:16.325Z,4
2016-11-23T06:16:16.357Z,4
2016-11-23T06:17:16.443Z,8
2016-11-23T06:18:16.487Z,8
2016-11-23T06:19:16.550Z,8
2016-11-23T06:20:16.588Z,8
2016-11-23T06:21:16.673Z,8
2016-11-23T06:22:16.711Z,8
2016-11-23T06:23:16.766Z,12
2016-11-23T06:24:16.844Z,16
2016-11-23T06:25:16.891Z,16
2016-11-23T06:26:16.962Z,20
2016-11-23T06:27:17.026Z,20
2016-11-23T06:28:17.092Z,24
2016-11-23T06:29:17.106Z,20
2016-11-23T06:30:17.182Z,24
2016-11-23T06:31:17.205Z,28
2016-11-23T06:32:17.287Z,28
2016-11-23T06:33:17.350Z,28
2016-11-23T06:34:17.398Z,36
2016-11-23T06:35:17.443Z,40
2016-11-23T06:36:17.502Z,44
2016-11-23T06:37:17.560Z,60
2016-11-23T06:38:17.609Z,68
2016-11-23T06:39:17.671Z,76
2016-11-23T06:40:17.754Z,80
2016-11-23T06:41:17.826Z,80
2016-11-23T06:42:17.843Z,88
2016-11-23T06:43:17.914Z,84
2016-11-23T06:44:17.974Z,84
2016-11-23T06:45:18.024Z,84
2016-11-23T06:46:18.068Z,80
2016-11-23T06:47:18.154Z,72
2016-11-23T06:48:18.203Z,68
2016-11-23T06:49:18.229Z,68
2016-11-23T06:50:18.320Z,72
2016-11-23T06:51:18.354Z,72
2016-11-23T06:52:18.441Z,80
2016-11-23T06:53:18.475Z,88
2016-11-23T06:54:18.552Z,96
2016-11-23T06:55:18.613Z,104
2016-11-23T06:56:18.648Z,112
2016-11-23T06:57:18.703Z,128
2016-11-23T06:58:18.747Z,140
2016-11-23T06:59:18.827Z,152
2016-11-23T07:00:18.859Z,164
2016-11-23T07:01:18.929Z,172
2016-11-23T07:02:18.988Z,180
2016-11-23T07:03:19.080Z,188
2016-11-23T07:04:19.129Z,196
2016-11-23T07:05:19.173Z,196
2016-11-23T07:06:19.205Z,200
2016-11-23T07:07:19.244Z,208
2016-11-23T07:08:19.356Z,216
2016-11-23T07:09:19.369Z,220
2016-11-23T07:10:19.459Z,224
2016-11-23T07:11:19.493Z,228
2016-11-23T07:12:19.527Z,236
2016-11-23T07:13:19.637Z,244
2016-11-23T07:14:19.673Z,248
2016-11-23T07:15:19.706Z,252
2016-11-23T07:16:19.811Z,260
2016-11-23T07:17:19.825Z,272
2016-11-23T07:18:19.922Z,280
2016-11-23T07:19:19.939Z,300
2016-11-23T07:20:20.005Z,312
2016-11-23T07:21:20.093Z,320
2016-11-23T07:22:20.111Z,348
2016-11-23T07:23:20.196Z,376
2016-11-23T07:24:20.263Z,360
2016-11-23T07:25:20.282Z,352
2016-11-23T07:26:20.347Z,348
2016-11-23T07:27:20.400Z,348
2016-11-23T07:28:20.440Z,356
2016-11-23T07:29:20.495Z,360
2016-11-23T07:30:20.582Z,356
2016-11-23T07:31:20.630Z,360
2016-11-23T07:32:20.697Z,360
2016-11-23T07:33:20.854Z,368
2016-11-23T07:34:20.808Z,372
2016-11-23T07:35:20.857Z,376
2016-11-23T07:36:20.914Z,380
2016-11-23T07:37:21.000Z,396
2016-11-23T07:38:21.043Z,416
2016-11-23T07:39:21.082Z,436
2016-11-23T07:40:21.116Z,432
2016-11-23T07:41:21.218Z,448
2016-11-23T07:42:21.300Z,448
2016-11-23T07:43:21.342Z,448
2016-11-23T07:44:21.379Z,460
2016-11-23T07:45:21.426Z,456
2016-11-23T07:46:21.492Z,440
2016-11-23T07:47:21.548Z,428
2016-11-23T07:48:21.609Z,420
2016-11-23T07:49:21.661Z,424
2016-11-23T07:50:21.719Z,408
2016-11-23T07:51:21.785Z,400
2016-11-23T07:52:21.851Z,400
2016-11-23T07:53:21.866Z,412
2016-11-23T07:54:21.944Z,492
2016-11-23T07:55:22.001Z,520
2016-11-23T07:56:22.048Z,512
2016-11-23T07:57:22.140Z,528
2016-11-23T07:58:22.174Z,548
2016-11-23T07:59:22.228Z,504
2016-11-23T08:00:22.294Z,500
2016-11-23T08:01:22.321Z,492
2016-11-23T08:02:22.366Z,504
2016-11-23T08:03:22.454Z,512
2016-11-23T08:04:22.514Z,524
2016-11-23T08:05:22.595Z,528
2016-11-23T08:06:22.615Z,520
2016-11-23T08:07:22.683Z,504
2016-11-23T08:08:22.730Z,504
2016-11-23T08:09:22.803Z,508
2016-11-23T08:10:22.864Z,504
2016-11-23T08:11:22.890Z,512
2016-11-23T08:12:22.990Z,508
2016-11-23T08:13:23.048Z,508
2016-11-23T08:14:23.063Z,512
2016-11-23T08:15:23.109Z,536
2016-11-23T08:16:23.185Z,556
2016-11-23T08:17:23.283Z,540
2016-11-23T08:18:23.315Z,520
2016-11-23T08:19:23.369Z,496
2016-11-23T08:20:23.415Z,472
2016-11-23T08:21:23.506Z,460
2016-11-23T08:22:23.563Z,460
2016-11-23T08:23:23.614Z,452
2016-11-23T08:24:23.873Z,444
2016-11-23T08:25:23.741Z,440
2016-11-23T08:26:23.743Z,432
2016-11-23T08:27:23.824Z,432
2016-11-23T08:28:23.859Z,424
2016-11-23T08:29:23.916Z,428
2016-11-23T08:30:24.027Z,424
2016-11-23T08:31:24.066Z,424
2016-11-23T08:32:24.093Z,416
2016-11-23T08:33:24.191Z,420
2016-11-23T08:34:24.320Z,420
2016-11-23T08:35:24.300Z,424
2016-11-23T08:36:24.364Z,432
2016-11-23T08:37:24.384Z,440
2016-11-23T08:38:24.492Z,448
2016-11-23T08:39:24.504Z,456
2016-11-23T08:40:24.610Z,464
2016-11-23T08:41:24.646Z,472
2016-11-23T08:42:24.717Z,488
2016-11-23T08:43:24.761Z,496
2016-11-23T08:44:24.796Z,500
2016-11-23T08:45:24.887Z,512
2016-11-23T08:46:24.956Z,520
2016-11-23T08:47:24.959Z,528
2016-11-23T08:48:25.054Z,540
2016-11-23T08:49:25.112Z,548
2016-11-23T08:50:25.178Z,548
2016-11-23T08:51:25.220Z,560
2016-11-23T08:52:25.271Z,568
2016-11-23T08:53:25.350Z,572
2016-11-23T08:54:25.417Z,572
2016-11-23T08:55:25.734Z,576
2016-11-23T08:56:25.514Z,576
2016-11-23T08:57:25.579Z,572
2016-11-23T08:58:25.593Z,572
2016-11-23T08:59:25.710Z,576
2016-11-23T09:00:25.711Z,580
2016-11-23T09:01:25.787Z,588
2016-11-23T09:02:25.844Z,596
2016-11-23T09:03:25.906Z,612
2016-11-23T09:04:25.965Z,624
2016-11-23T09:05:26.009Z,632
2016-11-23T09:06:26.066Z,644
2016-11-23T09:07:26.138Z,652
2016-11-23T09:08:26.197Z,660
2016-11-23T09:09:26.228Z,660
2016-11-23T09:10:26.319Z,660
2016-11-23T09:11:26.388Z,656
2016-11-23T09:12:26.496Z,644
2016-11-23T09:13:26.496Z,632
2016-11-23T09:14:26.548Z,628
2016-11-23T09:15:26.611Z,624
2016-11-23T09:16:26.678Z,628
2016-11-23T09:17:26.740Z,640
2016-11-23T09:18:26.782Z,656
2016-11-23T09:19:26.815Z,672
2016-11-23T09:20:26.863Z,680
2016-11-23T09:21:27.001Z,676
2016-11-23T09:22:27.035Z,684
2016-11-23T09:23:27.073Z,700
2016-11-23T09:24:27.115Z,720
2016-11-23T09:25:27.231Z,744
2016-11-23T09:26:27.241Z,764
2016-11-23T09:27:27.267Z,792
2016-11-23T09:28:27.343Z,816
2016-11-23T09:29:27.435Z,828
2016-11-23T09:30:27.488Z,844
2016-11-23T09:31:27.560Z,876
2016-11-23T09:32:27.580Z,908
2016-11-23T09:33:27.642Z,956
2016-11-23T09:34:27.714Z,1012
2016-11-23T09:35:27.785Z,1048
2016-11-23T09:36:27.810Z,1064
2016-11-23T09:37:27.881Z,1072
2016-11-23T09:38:27.934Z,1076
2016-11-23T09:39:27.981Z,1080
2016-11-23T09:40:28.055Z,1084
2016-11-23T09:41:28.098Z,1096
2016-11-23T09:42:28.157Z,1108
2016-11-23T09:43:28.234Z,1116
2016-11-23T09:44:28.262Z,1136
2016-11-23T09:45:28.349Z,1164
2016-11-23T09:46:28.378Z,1188
2016-11-23T09:47:28.423Z,1204
2016-11-23T09:48:28.502Z,1204
2016-11-23T09:49:28.571Z,1204
2016-11-23T09:50:28.617Z,1200
2016-11-23T09:51:28.685Z,1196
2016-11-23T09:52:28.708Z,1176
2016-11-23T09:53:28.799Z,1160
2016-11-23T09:54:28.870Z,1136
2016-11-23T09:55:28.916Z,1120
2016-11-23T09:56:28.973Z,1100
2016-11-23T09:57:29.055Z,1080
2016-11-23T09:58:29.060Z,1076
2016-11-23T09:59:29.119Z,1076
2016-11-23T10:00:29.203Z,1088
2016-11-23T10:01:29.262Z,1112
2016-11-23T10:02:29.320Z,1128
2016-11-23T10:03:29.376Z,1120
2016-11-23T10:04:29.416Z,1112
2016-11-23T10:05:29.470Z,1108
2016-11-23T10:06:29.835Z,1120
2016-11-23T10:07:29.608Z,1132
2016-11-23T10:08:29.687Z,1124
2016-11-23T10:09:30.055Z,1104
2016-11-23T10:10:29.791Z,1084
2016-11-23T10:11:29.864Z,1064
2016-11-23T10:12:29.909Z,1048
2016-11-23T10:13:29.945Z,1032
2016-11-23T10:14:30.025Z,1024
2016-11-23T10:15:30.070Z,1016
2016-11-23T10:16:30.218Z,1016
2016-11-23T10:17:30.181Z,1028
2016-11-23T10:18:30.253Z,1028
2016-11-23T10:19:30.282Z,1008
2016-11-23T10:20:30.352Z,992
2016-11-23T10:21:31.881Z,968
2016-11-23T10:22:30.508Z,952
2016-11-23T10:23:30.533Z,952
2016-11-23T10:24:30.591Z,960
2016-11-23T10:25:30.617Z,972
2016-11-23T10:26:30.703Z,988
2016-11-23T10:27:30.745Z,996
2016-11-23T10:28:30.791Z,1008
2016-11-23T10:29:30.902Z,1000
2016-11-23T10:30:30.927Z,980
2016-11-23T10:31:30.986Z,948
2016-11-23T10:32:31.076Z,928
2016-11-23T10:33:31.101Z,920
2016-11-23T10:34:31.148Z,936
2016-11-23T10:35:31.234Z,964
2016-11-23T10:36:31.275Z,1000
2016-11-23T10:37:31.356Z,1016
2016-11-23T10:38:31.380Z,1012
2016-11-23T10:39:31.459Z,1004
2016-11-23T10:40:31.492Z,1020
2016-11-23T10:41:31.581Z,1064
2016-11-23T10:42:31.628Z,1120
2016-11-23T10:43:31.655Z,1192
2016-11-23T10:44:31.737Z,1228
2016-11-23T10:45:31.767Z,1236
2016-11-23T10:46:31.832Z,1208
2016-11-23T10:47:31.938Z,1164
2016-11-23T10:48:31.971Z,1108
2016-11-23T10:49:32.034Z,1052
2016-11-23T10:50:32.081Z,992
2016-11-23T10:51:32.138Z,948
2016-11-23T10:52:32.187Z,916
2016-11-23T10:53:32.298Z,916
2016-11-23T10:54:32.301Z,936
2016-11-23T10:55:32.367Z,968
2016-11-23T10:56:32.448Z,1008
2016-11-23T10:57:32.515Z,1040
2016-11-23T10:58:32.573Z,1060
2016-11-23T10:59:32.609Z,1080
2016-11-23T11:00:32.678Z,1096
2016-11-23T11:01:32.703Z,1088
2016-11-23T11:02:32.794Z,1056
2016-11-23T11:03:32.848Z,1060
2016-11-23T11:04:32.900Z,1056
2016-11-23T11:05:32.937Z,1056
2016-11-23T11:06:33.025Z,1064
2016-11-23T11:07:33.072Z,1084
2016-11-23T11:08:33.101Z,1112
2016-11-23T11:09:33.191Z,1152
2016-11-23T11:10:33.235Z,1200
2016-11-23T11:11:33.297Z,1248
2016-11-23T11:12:33.327Z,1304
2016-11-23T11:13:33.421Z,1356
2016-11-23T11:14:33.499Z,1372
2016-11-23T11:15:33.536Z,1404
2016-11-23T11:16:33.585Z,1464
2016-11-23T11:17:33.640Z,1536
2016-11-23T11:18:33.730Z,1608
2016-11-23T11:19:33.801Z,1680
2016-11-23T11:20:33.811Z,1744
2016-11-23T11:21:33.859Z,1772
2016-11-23T11:22:33.937Z,1804
2016-11-23T11:23:33.998Z,1816
2016-11-23T11:24:34.050Z,1772
2016-11-23T11:25:34.090Z,1692
2016-11-23T11:26:34.160Z,1652
2016-11-23T11:27:34.216Z,1640
2016-11-23T11:28:34.253Z,1628
2016-11-23T11:29:34.325Z,1652
2016-11-23T11:30:34.401Z,1648
2016-11-23T11:31:34.457Z,1612
2016-11-23T11:32:34.496Z,1592
2016-11-23T11:33:34.573Z,1556
2016-11-23T11:34:34.653Z,1520
2016-11-23T11:35:34.704Z,1476
2016-11-23T11:36:34.771Z,1428
2016-11-23T11:37:34.806Z,1380
2016-11-23T11:38:34.855Z,1352
2016-11-23T11:39:34.914Z,1336
2016-11-23T11:40:34.969Z,1332
2016-11-23T11:41:35.042Z,1320
2016-11-23T11:42:35.122Z,1312
2016-11-23T11:43:35.157Z,1320
2016-11-23T11:44:35.212Z,1328
2016-11-23T11:45:35.251Z,1348
2016-11-23T11:46:35.318Z,1360
2016-11-23T11:47:35.358Z,1376
2016-11-23T11:48:35.455Z,1380
2016-11-23T11:49:35.524Z,1380
2016-11-23T11:50:35.544Z,1380
2016-11-23T11:51:35.620Z,1388
2016-11-23T11:52:35.657Z,1384
2016-11-23T11:53:35.721Z,1364
2016-11-23T11:54:35.783Z,1332
2016-11-23T11:55:35.849Z,1288
2016-11-23T11:56:35.910Z,1244
2016-11-23T11:57:35.932Z,1208
2016-11-23T11:58:35.994Z,1188
2016-11-23T11:59:36.072Z,1196
2016-11-23T12:00:36.118Z,1212
2016-11-23T12:01:36.211Z,1232
2016-11-23T12:02:36.237Z,1244
2016-11-23T12:03:36.303Z,1244
2016-11-23T12:04:36.339Z,1268
2016-11-23T12:05:36.453Z,1296
2016-11-23T12:06:36.499Z,1360
2016-11-23T12:07:36.570Z,1420
2016-11-23T12:08:36.683Z,1468
2016-11-23T12:09:36.663Z,1504
2016-11-23T12:10:36.711Z,1544
2016-11-23T12:11:36.771Z,1576
2016-11-23T12:12:36.850Z,1612
2016-11-23T12:13:36.867Z,1644
2016-11-23T12:14:36.974Z,1668
2016-11-23T12:15:37.025Z,1676
2016-11-23T12:16:37.053Z,1676
2016-11-23T12:17:37.151Z,1672
2016-11-23T12:18:37.182Z,1656
2016-11-23T12:19:37.267Z,1640
2016-11-23T12:20:37.294Z,1636
2016-11-23T12:21:37.687Z,1632
2016-11-23T12:22:37.444Z,1632
2016-11-23T12:23:37.469Z,1624
2016-11-23T12:24:37.513Z,1616
2016-11-23T12:25:37.607Z,1608
2016-11-23T12:26:37.678Z,1612
2016-11-23T12:27:37.732Z,1620
2016-11-23T12:28:37.768Z,1612
2016-11-23T12:29:37.828Z,1612
2016-11-23T12:30:37.864Z,1596
2016-11-23T12:31:37.944Z,1572
2016-11-23T12:32:37.999Z,1544
2016-11-23T12:33:38.064Z,1512
2016-11-23T12:34:38.109Z,1488
2016-11-23T12:35:38.143Z,1460
2016-11-23T12:36:38.279Z,1420
2016-11-23T12:37:38.283Z,1372
2016-11-23T12:38:38.362Z,1320
2016-11-23T12:39:38.397Z,1264
2016-11-23T12:40:38.479Z,1236
2016-11-23T12:41:38.557Z,1220
2016-11-23T12:42:38.563Z,1212
2016-11-23T12:43:38.631Z,1208
2016-11-23T12:44:38.700Z,1208
2016-11-23T12:45:38.736Z,1200
2016-11-23T12:46:38.813Z,1184
2016-11-23T12:47:38.871Z,1164
2016-11-23T12:48:38.938Z,1144
2016-11-23T12:49:38.988Z,1128
2016-11-23T12:50:39.039Z,1140
2016-11-23T12:51:39.115Z,1164
2016-11-23T12:52:39.153Z,1192
2016-11-23T12:53:39.244Z,1216
2016-11-23T12:54:39.302Z,1200
2016-11-23T12:55:39.336Z,1160
2016-11-23T12:56:39.361Z,1108
2016-11-23T12:57:39.463Z,1052
2016-11-23T12:58:39.523Z,1012
2016-11-23T12:59:39.716Z,988
2016-11-23T13:00:39.616Z,988
2016-11-23T13:01:39.685Z,1012
2016-11-23T13:02:40.015Z,1048
2016-11-23T13:03:39.796Z,1072
2016-11-23T13:04:39.859Z,1076
2016-11-23T13:05:39.880Z,1060
2016-11-23T13:06:39.970Z,1036
2016-11-23T13:07:40.027Z,1008
2016-11-23T13:08:40.085Z,976
2016-11-23T13:09:40.131Z,948
2016-11-23T13:10:40.207Z,928
2016-11-23T13:11:40.265Z,912
2016-11-23T13:12:40.312Z,908
2016-11-23T13:13:40.334Z,908
2016-11-23T13:14:40.410Z,908
2016-11-23T13:15:40.477Z,904
2016-11-23T13:16:40.529Z,896
2016-11-23T13:17:40.594Z,888
2016-11-23T13:18:40.642Z,876
2016-11-23T13:19:40.676Z,864
2016-11-23T13:20:40.762Z,848
2016-11-23T13:21:40.799Z,820
2016-11-23T13:22:40.880Z,796
2016-11-23T13:23:40.935Z,772
2016-11-23T13:24:41.012Z,740
2016-11-23T13:25:41.019Z,712
2016-11-23T13:26:41.127Z,696
2016-11-23T13:27:41.183Z,692
2016-11-23T13:28:41.199Z,696
2016-11-23T13:29:41.276Z,696
2016-11-23T13:30:41.354Z,704
2016-11-23T13:31:41.388Z,712
2016-11-23T13:32:41.465Z,724
2016-11-23T13:33:41.504Z,740
2016-11-23T13:34:41.569Z,756
2016-11-23T13:35:41.615Z,768
2016-11-23T13:36:41.665Z,768
2016-11-23T13:37:41.720Z,768
2016-11-23T13:38:42.130Z,756
2016-11-23T13:39:41.819Z,744
2016-11-23T13:40:41.900Z,728
2016-11-23T13:41:41.967Z,716
2016-11-23T13:42:41.989Z,708
2016-11-23T13:43:42.059Z,696
2016-11-23T13:44:42.114Z,688
2016-11-23T13:45:42.162Z,688
2016-11-23T13:46:42.249Z,684
2016-11-23T13:47:42.263Z,680
2016-11-23T13:48:42.353Z,672
2016-11-23T13:49:42.419Z,664
2016-11-23T13:50:42.455Z,648
2016-11-23T13:51:42.520Z,636
2016-11-23T13:52:42.568Z,628
2016-11-23T13:53:42.628Z,624
2016-11-23T13:54:42.714Z,616
2016-11-23T13:55:42.750Z,608
2016-11-23T13:56:42.831Z,596
2016-11-23T13:57:42.849Z,576
2016-11-23T13:58:42.895Z,556
2016-11-23T13:59:42.974Z,532
2016-11-23T14:00:43.021Z,512
2016-11-23T14:01:43.108Z,500
2016-11-23T14:02:43.143Z,496
2016-11-23T14:03:43.199Z,492
2016-11-23T14:04:43.247Z,488
2016-11-23T14:05:43.319Z,484
2016-11-23T14:06:43.372Z,476
2016-11-23T14:07:43.419Z,468